createdAt,value
2023-01-12T00:03:57.169Z,-10.80
2023-01-12T00:09:19.062Z,-10.86
2023-01-12T00:14:42.156Z,-10.91
2023-01-12T00:20:05.930Z,-10.84
2023-01-12T00:25:28.173Z,-10.83
2023-01-12T00:30:50.156Z,-10.89
2023-01-12T00:36:16.326Z,-10.79
2023-01-12T00:41:58.343Z,-10.80
2023-01-12T00:47:20.676Z,-10.80
2023-01-12T00:52:42.587Z,-10.95
2023-01-12T00:58:04.846Z,-10.89
2023-01-12T01:03:26.764Z,-10.92
2023-01-12T01:08:50.901Z,-11.01
2023-01-12T01:14:18.832Z,-10.96
2023-01-12T01:19:49.566Z,-10.92
2023-01-12T01:25:16.591Z,-10.99
2023-01-12T01:30:53.101Z,-11.06
2023-01-12T01:36:21.869Z,-10.97
2023-01-12T01:41:45.136Z,-10.94
2023-01-12T01:47:20.822Z,-11.08
2023-01-12T01:52:57.819Z,-11.00
2023-01-12T01:58:29.515Z,-10.99
2023-01-12T02:03:59.279Z,-10.80
2023-01-12T02:09:29.720Z,-10.88
2023-01-12T02:15:11.808Z,-11.00
2023-01-12T02:20:43.101Z,-10.81
2023-01-12T02:27:03.967Z,-10.82
2023-01-12T02:32:34.918Z,-10.79
2023-01-12T02:38:32.485Z,-11.02
2023-01-12T02:43:55.331Z,-10.87
2023-01-12T02:49:21.679Z,-10.67
2023-01-12T02:54:48.802Z,-10.81
2023-01-12T03:00:13.925Z,-10.69
2023-01-12T03:05:35.804Z,-10.65
2023-01-12T03:11:13.678Z,-10.64
2023-01-12T03:16:36.742Z,-10.65
2023-01-12T03:22:02.919Z,-10.62
2023-01-12T03:27:39.632Z,-10.56
2023-01-12T03:33:02.029Z,-10.58
2023-01-12T03:38:34.997Z,-10.53
2023-01-12T03:44:02.727Z,-10.61
2023-01-12T03:49:40.312Z,-10.44
2023-01-12T03:55:06.226Z,-10.44
2023-01-12T04:00:29.895Z,-10.39
2023-01-12T04:12:08.873Z,-10.51
2023-01-12T04:17:40.674Z,-10.37
2023-01-12T04:23:05.093Z,-10.29
2023-01-12T04:28:31.081Z,-10.41
2023-01-12T04:34:11.752Z,-10.34
2023-01-12T04:39:43.191Z,-10.44
2023-01-12T04:45:15.626Z,-10.27
2023-01-12T04:50:45.387Z,-10.21
2023-01-12T04:56:13.925Z,-10.37
2023-01-12T05:01:47.243Z,-10.29
2023-01-12T05:07:10.050Z,-10.15
2023-01-12T05:12:32.170Z,-10.17
2023-01-12T05:17:54.932Z,-10.19
2023-01-12T05:23:17.124Z,-10.15
2023-01-12T05:28:39.151Z,-10.14
2023-01-12T05:34:00.941Z,-10.13
2023-01-12T05:39:22.923Z,-10.13
2023-01-12T05:44:44.518Z,-10.24
2023-01-12T05:50:07.218Z,-10.17
2023-01-12T05:55:28.831Z,-10.20
2023-01-12T06:00:51.007Z,-10.18
2023-01-12T06:06:13.481Z,-10.18
2023-01-12T06:11:54.012Z,-10.30
2023-01-12T06:17:16.302Z,-10.21
2023-01-12T06:22:38.271Z,-10.20
2023-01-12T06:28:00.478Z,-10.27
2023-01-12T06:33:22.571Z,-10.04
2023-01-12T06:38:44.565Z,-10.14
2023-01-12T06:44:06.280Z,-10.15
2023-01-12T06:49:28.072Z,-10.09
2023-01-12T06:54:50.654Z,-10.06
2023-01-12T07:00:13.910Z,-10.06
2023-01-12T07:05:35.536Z,-9.99
2023-01-12T07:11:05.343Z,-9.96
2023-01-12T07:16:27.553Z,-9.92
2023-01-12T07:21:50.983Z,-9.93
2023-01-12T07:27:13.260Z,-10.01
2023-01-12T07:32:35.223Z,-9.83
2023-01-12T07:37:57.041Z,-9.82
2023-01-12T07:43:19.743Z,-9.81
2023-01-12T07:48:41.514Z,-9.83
2023-01-12T07:54:03.651Z,-9.70
2023-01-12T07:59:26.410Z,-9.68
2023-01-12T08:04:48.357Z,-9.66
2023-01-12T08:10:15.446Z,-9.86
2023-01-12T08:15:48.155Z,-9.64
2023-01-12T08:21:22.102Z,-9.67
2023-01-12T08:27:02.355Z,-9.62
2023-01-12T08:32:40.774Z,-9.64
2023-01-12T08:38:25.444Z,-9.59
2023-01-12T08:44:09.497Z,-9.54
2023-01-12T08:49:35.366Z,-9.44
2023-01-12T08:54:58.979Z,-9.44
2023-01-12T09:00:31.111Z,-9.35
2023-01-12T09:06:37.630Z,-9.23
2023-01-12T09:12:01.152Z,-9.23
2023-01-12T09:17:23.558Z,-9.17
2023-01-12T09:22:45.172Z,-9.13
2023-01-12T09:28:07.266Z,-9.00
2023-01-12T09:33:30.112Z,-8.90
2023-01-12T09:38:52.253Z,-8.78
2023-01-12T09:44:37.569Z,-8.96
2023-01-12T09:50:09.067Z,-9.08
2023-01-12T09:56:10.191Z,-8.87
2023-01-12T10:01:32.332Z,-8.54
2023-01-12T10:08:16.224Z,-8.27
2023-01-12T10:14:19.234Z,-7.90
2023-01-12T10:20:13.472Z,-7.86
2023-01-12T10:25:55.685Z,-8.04
2023-01-12T10:31:29.484Z,-8.27
2023-01-12T10:36:59.903Z,-8.23
2023-01-12T10:42:49.291Z,-8.30
2023-01-12T10:48:37.764Z,-8.33
2023-01-12T10:54:23.200Z,-8.49
2023-01-12T11:00:44.410Z,-8.46
2023-01-12T11:06:33.624Z,-8.48
2023-01-12T11:12:01.833Z,-8.29
2023-01-12T11:17:39.433Z,-8.24
2023-01-12T11:23:11.282Z,-8.28
2023-01-12T11:28:43.512Z,-8.41
2023-01-12T11:34:18.854Z,-8.52
2023-01-12T11:39:52.952Z,-8.48
2023-01-12T11:45:29.665Z,-8.49
2023-01-12T11:50:54.217Z,-8.54
2023-01-12T11:56:29.722Z,-8.52
2023-01-12T12:02:39.921Z,-8.57
2023-01-12T12:08:14.170Z,-8.73
2023-01-12T12:13:58.833Z,-8.76
2023-01-12T12:19:55.465Z,-8.81
2023-01-12T12:25:30.161Z,-8.85
2023-01-12T12:31:30.215Z,-8.91
2023-01-12T12:37:22.522Z,-9.01
2023-01-12T12:43:18.935Z,-9.01
2023-01-12T12:49:10.003Z,-9.09
2023-01-12T12:54:53.666Z,-9.30
2023-01-12T13:01:07.820Z,-9.47
2023-01-12T13:06:54.687Z,-9.57
2023-01-12T13:12:31.678Z,-9.43
2023-01-12T13:17:55.792Z,-9.52
2023-01-12T13:23:47.722Z,-9.59
2023-01-12T13:29:27.918Z,-9.60
2023-01-12T13:34:53.033Z,-9.63
2023-01-12T13:40:27.143Z,-9.67
2023-01-12T13:45:58.276Z,-9.82
2023-01-12T13:51:42.703Z,-9.92
2023-01-12T13:57:11.124Z,-9.94
2023-01-12T14:02:33.438Z,-9.90
2023-01-12T14:08:50.635Z,-9.96
2023-01-12T14:21:54.111Z,-10.13
2023-01-12T14:27:40.962Z,-10.11
2023-01-12T14:34:19.592Z,-10.19
2023-01-12T14:39:50.353Z,-10.24
2023-01-12T14:46:07.858Z,-10.20
2023-01-12T14:52:41.031Z,-10.08
2023-01-12T14:58:46.639Z,-10.15
2023-01-12T15:05:12.555Z,-10.24
2023-01-12T15:10:41.323Z,-10.18
2023-01-12T15:16:23.701Z,-10.13
2023-01-12T15:22:05.451Z,-10.11
2023-01-12T15:27:28.501Z,-10.09
2023-01-12T15:32:50.844Z,-10.16
2023-01-12T15:38:21.234Z,-10.12
2023-01-12T15:43:42.883Z,-10.08
2023-01-12T15:49:06.317Z,-10.09
2023-01-12T15:54:28.142Z,-10.07
2023-01-12T15:59:49.826Z,-10.06
2023-01-12T16:05:13.729Z,-9.95
2023-01-12T16:10:55.499Z,-10.05
2023-01-12T16:16:28.757Z,-9.87
2023-01-12T16:21:59.468Z,-9.88
2023-01-12T16:27:42.782Z,-9.76
2023-01-12T16:33:18.554Z,-9.80
2023-01-12T16:38:41.452Z,-9.68
2023-01-12T16:44:15.630Z,-9.54
2023-01-12T16:49:55.482Z,-9.49
2023-01-12T16:55:51.565Z,-9.44
2023-01-12T17:01:18.262Z,-9.25
2023-01-12T17:07:28.665Z,-9.10
2023-01-12T17:13:28.052Z,-9.18
2023-01-12T17:25:55.647Z,-8.90
2023-01-12T17:31:34.460Z,-8.86
2023-01-12T17:36:58.340Z,-8.76
2023-01-12T17:42:41.829Z,-8.81
2023-01-12T17:48:18.793Z,-8.70
2023-01-12T17:53:41.832Z,-8.70
2023-01-12T17:59:09.132Z,-8.67
2023-01-12T18:04:34.550Z,-8.50
2023-01-12T18:09:56.588Z,-8.53
2023-01-12T18:15:21.710Z,-8.51
2023-01-12T18:20:49.011Z,-8.30
2023-01-12T18:26:17.369Z,-8.23
2023-01-12T18:31:42.472Z,-8.25
2023-01-12T18:37:05.234Z,-8.16
2023-01-12T18:42:45.378Z,-8.12
2023-01-12T18:48:24.629Z,-8.08
2023-01-12T18:53:46.882Z,-8.24
2023-01-12T18:59:08.674Z,-8.08
2023-01-12T19:04:49.121Z,-8.03
2023-01-12T19:10:11.433Z,-8.02
2023-01-12T19:15:51.917Z,-8.06
2023-01-12T19:21:33.114Z,-7.96
2023-01-12T19:27:15.712Z,-7.93
2023-01-12T19:32:37.882Z,-7.82
2023-01-12T19:38:00.453Z,-7.94
2023-01-12T19:43:26.903Z,-7.85
2023-01-12T19:48:52.122Z,-7.98
2023-01-12T19:54:14.664Z,-7.93
2023-01-12T19:59:36.854Z,-7.81
2023-01-12T20:04:59.764Z,-7.84
2023-01-12T20:10:23.748Z,-7.81
2023-01-12T20:15:48.469Z,-7.67
2023-01-12T20:21:12.467Z,-7.63
2023-01-12T20:26:42.069Z,-7.49
2023-01-12T20:32:04.543Z,-7.57
2023-01-12T20:37:26.440Z,-7.54
2023-01-12T20:42:49.074Z,-7.37
2023-01-12T20:48:14.050Z,-7.53
2023-01-12T20:53:40.592Z,-7.49
2023-01-12T20:59:03.964Z,-7.26
2023-01-12T21:04:25.860Z,-7.24
2023-01-12T21:09:48.364Z,-7.36
2023-01-12T21:15:13.856Z,-7.33
2023-01-12T21:20:36.045Z,-7.24
2023-01-12T21:25:59.676Z,-7.20
2023-01-12T21:31:21.638Z,-7.11
2023-01-12T21:36:44.075Z,-7.21
2023-01-12T21:42:24.936Z,-7.05
2023-01-12T21:47:47.124Z,-7.09
2023-01-12T21:53:13.304Z,-7.03
2023-01-12T21:58:37.261Z,-6.96
2023-01-12T22:03:59.360Z,-6.93
2023-01-12T22:09:21.647Z,-6.97
2023-01-12T22:15:10.681Z,-6.96
2023-01-12T22:20:44.447Z,-6.99
2023-01-12T22:26:09.857Z,-6.81
2023-01-12T22:31:34.259Z,-6.85
2023-01-12T22:36:58.757Z,-6.86
2023-01-12T22:42:24.471Z,-6.89
2023-01-12T22:47:51.135Z,-6.78
2023-01-12T22:53:13.820Z,-6.77
2023-01-12T22:58:36.215Z,-6.70
2023-01-12T23:04:01.263Z,-6.68
2023-01-12T23:09:24.932Z,-6.67
2023-01-12T23:14:50.186Z,-6.63
2023-01-12T23:20:12.402Z,-6.72
2023-01-12T23:25:35.564Z,-6.58
2023-01-12T23:31:09.934Z,-6.55
2023-01-12T23:36:32.385Z,-6.51
2023-01-12T23:41:54.404Z,-6.55
2023-01-12T23:47:19.593Z,-6.63
2023-01-12T23:52:41.685Z,-6.51
2023-01-12T23:58:03.863Z,-6.53
